Terminal Aerodrome Forecast
Issued by NWS Jackson, MS

Home | Current Version | Previous Version | Text Only | Print | Product List | Glossary On
Versions: 1 2 3 4 5 6 7 8 9 10 11 12 13 14
000
FTUS44 KJAN 302340
TAFMEI
TAF
KMEI 302340Z 3100/3124 VRB03KT P6SM SCT030 SCT060
     FM310930 18004KT 6SM BR BKN019 OVC030
     FM311500 23008KT P6SM BKN025 BKN050
     FM311800 23010G18KT P6SM SCT050=

USA.gov is the U.S. government's official web portal to all federal, state and local government web resources and services.